KTOI/TOI METAR and TAF weather

Enter ICAO airport designator
Station Type Date Time Source
KTOI METAR 2021/04/14 19:53 UTC NOAA

KTOI 141953Z AUTO 26007KT 10SM BKN080 BKN090 OVC110 25/13 A3008 RMK AO2 SLP181 T02500128


Station Type Date Time Source
KTOI Decoded METAR 2021/04/14 19:53 UTC NOAA

TROY MUNICIPAL AIRPORT, AL, United States (KTOI) 31-52N 086-01W 118M
Apr 14, 2021 - 03:53 PM EDT / 2021.04.14 1953 UTC
Wind: from the W (260 degrees) at 8 MPH (7 KT):0
Visibility: 10 mile(s):0
Sky conditions: overcast
Temperature: 77.0 F (25.0 C)
Dew Point: 55.0 F (12.8 C)
Relative Humidity: 46%
Pressure (altimeter): 30.08 in. Hg (1018 hPa)
ob: KTOI 141953Z AUTO 26007KT 10SM BKN080 BKN090 OVC110 25/13 A3008 RMK AO2 SLP181 T02500128
cycle: 20

Station Type Date Time Source
KTOI TAF 2021/04/14 19:40 UTC NOAA

TAF
AMD KTOI 141838Z 1419/1518 24006KT P6SM SHRA BKN080
FM150300 26004KT P6SM OVC030 PROB30 1504/1509 4SM SHRA BR OVC015
FM150900 30005KT P6SM OVC015 PROB30 1509/1515 4SM SHRA BR OVC005
FM151500 33007KT P6SM OVC020 PROB30 1515/1518 4SM SHRA BR OVC010

Example: see airport list